createdAt,value
2022-09-04T00:00:10.409Z,13.29
2022-09-04T00:03:20.170Z,13.38
2022-09-04T00:05:57.307Z,13.36
2022-09-04T00:08:33.316Z,13.30
2022-09-04T00:11:16.046Z,13.35
2022-09-04T00:13:57.678Z,13.38
2022-09-04T00:16:55.008Z,13.28
2022-09-04T00:19:44.437Z,13.18
2022-09-04T00:22:31.622Z,13.03
2022-09-04T00:25:21.254Z,12.94
2022-09-04T00:27:55.931Z,13.17
2022-09-04T00:30:23.189Z,13.07
2022-09-04T00:33:15.936Z,12.93
2022-09-04T00:35:52.086Z,13.04
2022-09-04T00:38:30.889Z,13.06
2022-09-04T00:41:12.593Z,13.06
2022-09-04T00:44:26.233Z,12.93
2022-09-04T00:47:20.661Z,13.08
2022-09-04T00:50:17.224Z,13.02
2022-09-04T00:52:59.497Z,13.11
2022-09-04T00:55:46.738Z,13.08
2022-09-04T00:58:13.474Z,12.99
2022-09-04T01:00:40.915Z,12.83
2022-09-04T01:03:07.714Z,12.77
2022-09-04T01:05:46.101Z,12.68
2022-09-04T01:08:39.895Z,12.75
2022-09-04T01:11:41.417Z,12.71
2022-09-04T01:14:41.505Z,12.57
2022-09-04T01:17:37.319Z,12.72
2022-09-04T01:20:28.585Z,12.70
2022-09-04T01:23:12.741Z,12.52
2022-09-04T01:26:11.409Z,12.46
2022-09-04T01:28:59.125Z,12.35
2022-09-04T01:31:53.419Z,12.24
2022-09-04T01:34:34.168Z,12.00
2022-09-04T01:37:16.138Z,12.17
2022-09-04T01:39:51.065Z,12.14
2022-09-04T01:42:23.804Z,11.99
2022-09-04T01:44:50.610Z,11.97
2022-09-04T01:47:30.528Z,11.99
2022-09-04T01:50:23.725Z,12.09
2022-09-04T01:53:40.809Z,12.18
2022-09-04T01:56:20.850Z,12.19
2022-09-04T01:58:56.885Z,12.19
2022-09-04T02:01:48.821Z,12.18
2022-09-04T02:04:54.747Z,12.31
2022-09-04T02:08:18.570Z,12.33
2022-09-04T02:11:16.888Z,12.30
2022-09-04T02:13:51.546Z,12.25
2022-09-04T02:16:45.397Z,12.17
2022-09-04T02:19:50.428Z,12.07
2022-09-04T02:22:47.914Z,12.06
2022-09-04T02:25:33.274Z,12.02
2022-09-04T02:28:31.297Z,12.08
2022-09-04T02:31:49.438Z,11.98
2022-09-04T02:34:28.830Z,12.09
2022-09-04T02:37:29.066Z,12.19
2022-09-04T02:40:43.247Z,12.21
2022-09-04T02:43:28.253Z,12.10
2022-09-04T02:46:28.854Z,12.21
2022-09-04T02:49:14.271Z,12.03
2022-09-04T02:52:33.583Z,12.06
2022-09-04T02:55:29.174Z,12.04
2022-09-04T02:58:20.105Z,12.03
2022-09-04T03:00:46.829Z,11.88
2022-09-04T03:03:21.626Z,11.80
2022-09-04T03:06:14.658Z,11.89
2022-09-04T03:08:54.372Z,11.83
2022-09-04T03:11:32.160Z,11.67
2022-09-04T03:14:18.037Z,11.55
2022-09-04T03:16:57.305Z,11.40
2022-09-04T03:19:42.636Z,11.34
2022-09-04T03:22:30.409Z,11.22
2022-09-04T03:25:36.873Z,11.21
2022-09-04T03:28:04.241Z,11.13
2022-09-04T03:30:35.103Z,11.06
2022-09-04T03:33:43.908Z,11.14
2022-09-04T03:36:22.406Z,11.15
2022-09-04T03:39:29.341Z,11.15
2022-09-04T03:42:24.241Z,11.19
2022-09-04T03:45:12.530Z,11.18
2022-09-04T03:48:20.050Z,11.17
2022-09-04T03:51:01.666Z,11.19
2022-09-04T03:53:44.742Z,11.23
2022-09-04T03:56:44.833Z,11.33
2022-09-04T03:59:25.426Z,11.39
2022-09-04T04:02:23.926Z,11.34
2022-09-04T04:05:03.741Z,11.40
2022-09-04T04:08:30.726Z,11.24
2022-09-04T04:11:53.594Z,11.09
2022-09-04T04:14:53.668Z,11.00
2022-09-04T04:18:02.285Z,11.11
2022-09-04T04:20:44.640Z,10.99
2022-09-04T04:23:36.382Z,10.95
2022-09-04T04:26:11.523Z,10.94
2022-09-04T04:29:04.254Z,10.87
2022-09-04T04:32:10.929Z,10.91
2022-09-04T04:35:13.261Z,10.97
2022-09-04T04:37:51.926Z,10.99
2022-09-04T04:40:28.238Z,10.94
2022-09-04T04:43:24.942Z,10.90
2022-09-04T04:46:16.144Z,10.85
2022-09-04T04:48:57.943Z,10.78
2022-09-04T04:52:10.530Z,10.93
2022-09-04T04:55:21.538Z,11.14
2022-09-04T04:58:34.486Z,11.22
2022-09-04T05:01:43.310Z,11.14
2022-09-04T05:04:30.112Z,11.04
2022-09-04T05:07:17.953Z,11.01
2022-09-04T05:10:19.022Z,11.02
2022-09-04T05:13:00.455Z,11.10
2022-09-04T05:15:52.904Z,10.99
2022-09-04T05:18:42.378Z,10.87
2022-09-04T05:21:25.387Z,11.00
2022-09-04T05:24:15.054Z,11.00
2022-09-04T05:26:46.479Z,10.95
2022-09-04T05:29:17.686Z,11.04
2022-09-04T05:32:05.561Z,10.98
2022-09-04T05:34:51.787Z,10.83
2022-09-04T05:38:02.949Z,10.93
2022-09-04T05:40:46.963Z,11.03
2022-09-04T05:43:49.366Z,11.12
2022-09-04T05:46:31.252Z,11.20
2022-09-04T05:49:24.321Z,11.18
2022-09-04T05:52:23.302Z,11.27
2022-09-04T05:55:17.469Z,11.31
2022-09-04T05:58:05.505Z,11.36
2022-09-04T06:00:47.026Z,11.40
2022-09-04T06:03:47.706Z,11.47
2022-09-04T06:06:42.724Z,11.51
2022-09-04T06:09:28.973Z,11.56
2022-09-04T06:12:34.687Z,11.59
2022-09-04T06:15:41.882Z,11.65
2022-09-04T06:18:51.999Z,11.63
2022-09-04T06:21:58.934Z,11.71
2022-09-04T06:25:17.618Z,11.77
2022-09-04T06:28:41.724Z,11.78
2022-09-04T06:31:20.742Z,11.80
2022-09-04T06:34:04.385Z,11.89
2022-09-04T06:36:49.350Z,12.01
2022-09-04T06:39:25.134Z,12.10
2022-09-04T06:42:13.252Z,12.18
2022-09-04T06:45:22.910Z,12.29
2022-09-04T06:48:11.101Z,12.47
2022-09-04T06:50:57.091Z,12.49
2022-09-04T06:53:43.451Z,12.58
2022-09-04T06:56:43.006Z,12.78
2022-09-04T06:59:56.697Z,12.97
2022-09-04T07:02:32.504Z,13.15
2022-09-04T07:05:43.488Z,13.35
2022-09-04T07:08:58.396Z,13.48
2022-09-04T07:11:46.998Z,13.68
2022-09-04T07:14:41.874Z,13.95
2022-09-04T07:17:40.406Z,14.16
2022-09-04T07:20:53.586Z,14.38
2022-09-04T07:23:51.170Z,14.57
2022-09-04T07:26:42.061Z,14.62
2022-09-04T07:29:31.861Z,14.93
2022-09-04T07:32:18.913Z,15.20
2022-09-04T07:35:08.100Z,15.32
2022-09-04T07:38:02.981Z,15.51
2022-09-04T07:41:10.665Z,15.80
2022-09-04T07:43:53.987Z,16.08
2022-09-04T07:46:47.195Z,16.34
2022-09-04T07:49:23.981Z,16.55
2022-09-04T07:52:00.299Z,16.79
2022-09-04T07:54:38.254Z,16.99
2022-09-04T07:57:42.638Z,17.21
2022-09-04T08:00:22.931Z,17.34
2022-09-04T08:03:18.067Z,17.64
2022-09-04T08:06:15.056Z,17.93
2022-09-04T08:09:23.158Z,18.19
2022-09-04T08:12:35.552Z,18.34
2022-09-04T08:15:40.898Z,18.53
2022-09-04T08:18:34.428Z,18.78
2022-09-04T08:21:18.116Z,19.13
2022-09-04T08:24:34.075Z,19.32
2022-09-04T08:27:44.528Z,19.44
2022-09-04T08:30:15.807Z,19.79
2022-09-04T08:33:41.062Z,20.04
2022-09-04T08:36:30.278Z,20.34
2022-09-04T08:39:27.560Z,20.64
2022-09-04T08:42:12.909Z,20.89
2022-09-04T08:45:22.461Z,21.17
2022-09-04T08:48:11.218Z,21.29
2022-09-04T08:51:10.481Z,21.40
2022-09-04T08:54:02.607Z,21.63
2022-09-04T08:56:47.670Z,21.82
2022-09-04T09:00:10.789Z,22.09
2022-09-04T09:02:49.646Z,22.28
2022-09-04T09:05:51.147Z,22.41
2022-09-04T09:09:01.729Z,22.51
2022-09-04T09:11:43.559Z,22.82
2022-09-04T09:14:16.394Z,23.09
2022-09-04T09:17:12.997Z,23.32
2022-09-04T09:19:59.646Z,23.60
2022-09-04T09:22:37.530Z,23.79
2022-09-04T09:25:12.918Z,23.62
2022-09-04T09:28:19.230Z,23.09
2022-09-04T09:31:28.585Z,22.97
2022-09-04T09:34:47.769Z,23.22
2022-09-04T09:38:04.445Z,23.25
2022-09-04T09:40:57.844Z,23.16
2022-09-04T09:43:40.105Z,23.15
2022-09-04T09:46:43.105Z,23.20
2022-09-04T09:49:35.655Z,23.23
2022-09-04T09:52:33.351Z,23.29
2022-09-04T09:55:21.776Z,23.27
2022-09-04T09:58:23.270Z,23.29
2022-09-04T10:01:14.449Z,23.36
2022-09-04T10:04:10.188Z,23.26
2022-09-04T10:06:42.762Z,23.27
2022-09-04T10:09:23.735Z,23.22
2022-09-04T10:12:05.446Z,23.25
2022-09-04T10:14:59.353Z,23.25
2022-09-04T10:18:40.950Z,23.19
2022-09-04T10:21:50.446Z,23.11
2022-09-04T10:24:57.613Z,22.92
2022-09-04T10:28:02.809Z,22.83
2022-09-04T10:31:03.428Z,22.64
2022-09-04T10:33:55.809Z,22.48
2022-09-04T10:36:45.092Z,22.52
2022-09-04T10:39:47.222Z,22.76
2022-09-04T10:42:31.111Z,23.09
2022-09-04T10:45:17.359Z,23.45
2022-09-04T10:48:08.145Z,23.99
2022-09-04T10:50:37.723Z,24.36
2022-09-04T10:53:25.352Z,24.57
2022-09-04T10:56:19.662Z,24.93
2022-09-04T10:59:08.667Z,25.33
2022-09-04T11:01:47.821Z,25.30
2022-09-04T11:05:07.202Z,25.24
2022-09-04T11:08:13.946Z,25.24
2022-09-04T11:11:07.423Z,25.31
2022-09-04T11:13:51.592Z,25.33
2022-09-04T11:16:45.000Z,25.12
2022-09-04T11:19:34.385Z,25.05
2022-09-04T11:22:29.033Z,25.13
2022-09-04T11:25:45.262Z,25.05
2022-09-04T11:28:44.320Z,25.13
2022-09-04T11:32:00.293Z,25.15
2022-09-04T11:35:32.089Z,25.13
2022-09-04T11:38:19.351Z,25.04
2022-09-04T11:41:35.125Z,24.95
2022-09-04T11:44:35.249Z,25.03
2022-09-04T11:47:41.289Z,24.65
2022-09-04T11:50:56.608Z,24.74
2022-09-04T11:53:29.231Z,24.79
2022-09-04T11:56:35.501Z,24.60
2022-09-04T11:59:26.773Z,24.81
2022-09-04T12:02:16.718Z,24.79
2022-09-04T12:05:24.945Z,24.68
2022-09-04T12:08:49.205Z,24.89
2022-09-04T12:11:45.737Z,25.20
2022-09-04T12:14:47.250Z,25.55
2022-09-04T12:17:15.608Z,25.83
2022-09-04T12:20:04.182Z,25.93
2022-09-04T12:22:54.665Z,26.13
2022-09-04T12:26:01.473Z,26.04
2022-09-04T12:28:50.810Z,26.10
2022-09-04T12:31:51.857Z,26.07
2022-09-04T12:34:43.370Z,25.66
2022-09-04T12:37:43.686Z,25.72
2022-09-04T12:40:31.999Z,25.60
2022-09-04T12:43:20.743Z,25.86
2022-09-04T12:46:14.646Z,25.90
2022-09-04T12:49:04.347Z,25.86
2022-09-04T12:51:45.904Z,25.74
2022-09-04T12:54:25.073Z,25.85
2022-09-04T12:57:36.502Z,25.88
2022-09-04T13:00:12.304Z,25.80
2022-09-04T13:03:14.375Z,25.74
2022-09-04T13:06:04.183Z,25.60
2022-09-04T13:08:53.818Z,25.51
2022-09-04T13:11:54.658Z,25.43
2022-09-04T13:14:37.535Z,25.38
2022-09-04T13:17:28.253Z,25.42
2022-09-04T13:20:22.763Z,25.54
2022-09-04T13:23:14.274Z,25.47
2022-09-04T13:26:09.061Z,25.35
2022-09-04T13:29:16.123Z,25.46
2022-09-04T13:32:25.864Z,25.40
2022-09-04T13:35:26.378Z,25.40
2022-09-04T13:38:30.134Z,25.66
2022-09-04T13:41:36.669Z,26.25
2022-09-04T13:44:50.188Z,26.78
2022-09-04T13:47:33.202Z,26.96
2022-09-04T13:50:33.203Z,27.60
2022-09-04T13:53:16.690Z,28.01
2022-09-04T13:55:57.287Z,28.12
2022-09-04T13:58:44.289Z,27.51
2022-09-04T14:01:21.869Z,28.02
2022-09-04T14:03:55.504Z,28.20
2022-09-04T14:06:25.605Z,28.27
2022-09-04T14:09:04.493Z,28.16
2022-09-04T14:11:38.126Z,28.35
2022-09-04T14:15:07.778Z,28.13
2022-09-04T14:18:00.157Z,27.74
2022-09-04T14:20:34.441Z,27.33
2022-09-04T14:23:16.012Z,27.38
2022-09-04T14:25:56.033Z,27.76
2022-09-04T14:28:40.423Z,27.89
2022-09-04T14:31:33.949Z,28.10
2022-09-04T14:34:50.294Z,28.48
2022-09-04T14:37:59.366Z,28.63
2022-09-04T14:41:11.755Z,29.11
2022-09-04T14:43:59.545Z,29.53
2022-09-04T14:46:51.520Z,29.94
2022-09-04T14:49:25.301Z,29.65
2022-09-04T14:51:56.813Z,29.34
2022-09-04T14:54:29.949Z,28.91
2022-09-04T14:57:11.602Z,28.44
2022-09-04T14:59:56.534Z,28.15
2022-09-04T15:02:40.937Z,27.82
2022-09-04T15:05:31.551Z,27.89
2022-09-04T15:08:02.535Z,28.87
2022-09-04T15:10:47.792Z,28.38
2022-09-04T15:13:29.269Z,28.05
2022-09-04T15:16:16.278Z,28.62
2022-09-04T15:19:07.221Z,28.34
2022-09-04T15:21:49.052Z,27.72
2022-09-04T15:24:40.423Z,27.17
2022-09-04T15:27:20.383Z,28.28
2022-09-04T15:30:02.856Z,29.97
2022-09-04T15:32:39.904Z,30.40
2022-09-04T15:35:15.701Z,28.70
2022-09-04T15:37:48.344Z,27.93
2022-09-04T15:40:29.168Z,27.31
2022-09-04T15:43:15.676Z,27.31
2022-09-04T15:45:57.085Z,27.13
2022-09-04T15:49:00.177Z,26.83
2022-09-04T15:51:47.829Z,26.74
2022-09-04T15:54:28.931Z,26.58
2022-09-04T15:57:20.212Z,26.68
2022-09-04T16:00:14.565Z,26.45
2022-09-04T16:03:25.161Z,26.16
2022-09-04T16:05:58.678Z,26.23
2022-09-04T16:08:45.343Z,26.27
2022-09-04T16:11:55.957Z,26.17
2022-09-04T16:14:30.273Z,26.12
2022-09-04T16:17:07.513Z,26.05
2022-09-04T16:19:36.962Z,26.05
2022-09-04T16:22:43.981Z,25.84
2022-09-04T16:25:29.135Z,25.75
2022-09-04T16:28:12.354Z,25.64
2022-09-04T16:30:42.300Z,25.29
2022-09-04T16:33:33.315Z,25.12
2022-09-04T16:36:09.585Z,25.08
2022-09-04T16:39:03.942Z,24.92
2022-09-04T16:42:12.713Z,24.71
2022-09-04T16:45:11.211Z,24.59
2022-09-04T16:47:45.826Z,24.64
2022-09-04T16:50:33.269Z,24.57
2022-09-04T16:53:40.089Z,24.45
2022-09-04T16:56:37.478Z,24.30
2022-09-04T16:59:46.194Z,24.07
2022-09-04T17:02:36.113Z,23.94
2022-09-04T17:05:35.114Z,23.71
2022-09-04T17:08:07.839Z,23.57
2022-09-04T17:10:47.916Z,23.46
2022-09-04T17:13:15.300Z,23.44
2022-09-04T17:16:20.142Z,23.18
2022-09-04T17:18:53.698Z,22.86
2022-09-04T17:27:58.784Z,22.99
2022-09-04T17:29:00.160Z,22.86
2022-09-04T17:29:11.495Z,22.82
2022-09-04T17:31:29.950Z,22.71
2022-09-04T17:40:44.054Z,22.54
2022-09-04T17:40:50.561Z,22.34
2022-09-04T17:41:44.620Z,22.22
2022-09-04T17:44:10.826Z,22.04
2022-09-04T17:46:45.902Z,21.90
2022-09-04T17:49:21.437Z,21.86
2022-09-04T17:52:08.999Z,21.71
2022-09-04T17:54:49.189Z,21.59
2022-09-04T17:57:55.843Z,21.43
2022-09-04T18:00:30.119Z,21.31
2022-09-04T18:03:26.686Z,21.17
2022-09-04T18:06:03.500Z,21.04
2022-09-04T18:08:39.674Z,20.87
2022-09-04T18:11:31.366Z,20.72
2022-09-04T18:14:15.282Z,20.71
2022-09-04T18:17:31.169Z,20.58
2022-09-04T18:20:44.129Z,20.46
2022-09-04T18:23:48.154Z,20.38
2022-09-04T18:26:41.535Z,20.26
2022-09-04T18:34:12.542Z,20.04
2022-09-04T18:37:13.273Z,19.86
2022-09-04T18:37:25.652Z,19.78
2022-09-04T18:39:08.053Z,19.57
2022-09-04T18:47:44.743Z,19.52
2022-09-04T18:50:43.481Z,19.27
2022-09-04T18:50:51.228Z,19.10
2022-09-04T18:51:31.369Z,19.08
2022-09-04T18:54:03.894Z,19.02
2022-09-04T18:56:42.837Z,18.88
2022-09-04T18:59:18.617Z,18.85
2022-09-04T19:02:01.104Z,18.83
2022-09-04T19:05:01.629Z,18.74
2022-09-04T19:07:54.276Z,18.65
2022-09-04T19:10:29.398Z,18.57
2022-09-04T19:13:25.289Z,18.36
2022-09-04T19:16:10.873Z,18.36
2022-09-04T19:19:01.358Z,18.30
2022-09-04T19:21:36.590Z,18.21
2022-09-04T19:24:21.337Z,18.11
2022-09-04T19:26:56.891Z,17.99
2022-09-04T19:29:27.984Z,17.97
2022-09-04T19:32:08.046Z,17.94
2022-09-04T19:34:45.773Z,17.78
2022-09-04T19:39:00.213Z,17.76
2022-09-04T19:45:57.609Z,17.75
2022-09-04T19:46:16.094Z,17.65
2022-09-04T19:46:43.133Z,17.57
2022-09-04T19:50:46.127Z,17.49
2022-09-04T19:53:31.575Z,17.34
2022-09-04T19:55:35.749Z,17.37
2022-09-04T19:58:20.615Z,17.20
2022-09-04T20:00:55.857Z,16.98
2022-09-04T20:03:33.593Z,16.87
2022-09-04T20:06:38.806Z,16.77
2022-09-04T20:09:33.127Z,16.84
2022-09-04T20:12:14.971Z,16.88
2022-09-04T20:14:54.721Z,16.84
2022-09-04T20:18:04.032Z,16.88
2022-09-04T20:20:56.432Z,16.72
2022-09-04T20:23:53.068Z,16.58
2022-09-04T20:26:32.319Z,16.50
2022-09-04T20:29:19.469Z,16.54
2022-09-04T20:32:32.087Z,16.48
2022-09-04T20:35:14.617Z,16.52
2022-09-04T20:37:49.064Z,16.53
2022-09-04T20:40:36.527Z,16.38
2022-09-04T20:43:03.238Z,16.41
2022-09-04T20:52:46.367Z,16.34
2022-09-04T20:52:49.774Z,16.34
2022-09-04T20:53:00.036Z,16.30
2022-09-04T20:55:12.791Z,16.31
2022-09-04T21:03:05.443Z,16.09
2022-09-04T21:03:18.060Z,15.82
2022-09-04T21:04:43.252Z,15.85
2022-09-04T21:07:34.581Z,15.89
2022-09-04T21:10:46.967Z,15.89
2022-09-04T21:13:56.457Z,15.73
2022-09-04T21:16:51.390Z,15.85
2022-09-04T21:19:30.547Z,15.72
2022-09-04T21:22:33.608Z,15.61
2022-09-04T21:25:31.666Z,15.69
2022-09-04T21:28:36.093Z,15.60
2022-09-04T21:31:49.525Z,15.71
2022-09-04T21:34:59.966Z,15.61
2022-09-04T21:38:08.950Z,15.47
2022-09-04T21:40:49.792Z,15.41
2022-09-04T21:43:35.459Z,15.45
2022-09-04T21:46:31.680Z,15.44
2022-09-04T21:49:26.880Z,15.43
2022-09-04T21:52:28.084Z,15.39
2022-09-04T21:57:45.818Z,15.19
2022-09-04T22:02:42.249Z,15.25
2022-09-04T22:02:44.807Z,15.21
2022-09-04T22:05:48.091Z,14.95
2022-09-04T22:13:32.370Z,14.94
2022-09-04T22:13:39.853Z,14.99
2022-09-04T22:14:55.281Z,14.90
2022-09-04T22:17:45.000Z,14.94
2022-09-04T22:20:49.739Z,14.87
2022-09-04T22:24:09.245Z,14.79
2022-09-04T22:27:12.437Z,14.85
2022-09-04T22:30:05.826Z,14.75
2022-09-04T22:32:59.346Z,14.91
2022-09-04T22:35:47.149Z,14.97
2022-09-04T22:38:30.282Z,14.81
2022-09-04T22:41:38.367Z,14.76
2022-09-04T22:44:39.065Z,14.82
2022-09-04T22:47:31.303Z,14.73
2022-09-04T22:50:48.767Z,14.81
2022-09-04T22:54:00.183Z,14.64
2022-09-04T22:56:54.230Z,14.63
2022-09-04T22:59:46.865Z,14.50
2022-09-04T23:02:19.597Z,14.50
2022-09-04T23:05:23.165Z,14.51
2022-09-04T23:13:43.117Z,14.35
2022-09-04T23:13:57.990Z,14.53
2022-09-04T23:14:42.256Z,14.34
2022-09-04T23:17:52.825Z,14.32
2022-09-04T23:26:35.159Z,14.25
2022-09-04T23:26:44.301Z,14.23
2022-09-04T23:27:41.190Z,14.06
2022-09-04T23:30:25.249Z,14.12
2022-09-04T23:33:27.808Z,14.13
2022-09-04T23:36:02.622Z,14.08
2022-09-04T23:39:22.035Z,14.01
2022-09-04T23:42:46.514Z,14.08
2022-09-04T23:46:01.760Z,14.18
2022-09-04T23:48:37.285Z,14.15
2022-09-04T23:51:30.661Z,14.10
2022-09-04T23:54:44.154Z,14.01
2022-09-04T23:57:26.934Z,13.95
